sensor_id;sensor_type;location;lat;lon;timestamp;pressure;altitude;pressure_sealevel;temperature;humidity
43147;BME280;28752;48.266;7.402;2022-11-20T00:01:37;99081.97;;;5.37;98.68
43147;BME280;28752;48.266;7.402;2022-11-20T00:04:03;99088.03;;;5.37;98.10
43147;BME280;28752;48.266;7.402;2022-11-20T00:06:29;99048.56;;;5.16;97.83
43147;BME280;28752;48.266;7.402;2022-11-20T00:08:56;99088.28;;;5.45;97.39
43147;BME280;28752;48.266;7.402;2022-11-20T00:11:23;99092.34;;;5.38;97.41
43147;BME280;28752;48.266;7.402;2022-11-20T00:13:52;99062.88;;;5.34;97.88
43147;BME280;28752;48.266;7.402;2022-11-20T00:16:20;99080.75;;;5.52;97.36
43147;BME280;28752;48.266;7.402;2022-11-20T00:18:47;99075.84;;;5.59;97.31
43147;BME280;28752;48.266;7.402;2022-11-20T00:21:15;99085.88;;;5.65;95.58
43147;BME280;28752;48.266;7.402;2022-11-20T00:23:41;99079.38;;;5.80;93.98
43147;BME280;28752;48.266;7.402;2022-11-20T00:26:10;99085.78;;;5.87;93.04
43147;BME280;28752;48.266;7.402;2022-11-20T00:28:36;99085.19;;;5.95;92.73
43147;BME280;28752;48.266;7.402;2022-11-20T00:31:07;99084.91;;;6.10;89.70
43147;BME280;28752;48.266;7.402;2022-11-20T00:33:34;99089.53;;;6.17;89.85
43147;BME280;28752;48.266;7.402;2022-11-20T00:36:05;99089.03;;;6.23;88.48
43147;BME280;28752;48.266;7.402;2022-11-20T00:38:31;99091.16;;;6.30;88.35
43147;BME280;28752;48.266;7.402;2022-11-20T00:41:08;99084.75;;;6.44;87.00
43147;BME280;28752;48.266;7.402;2022-11-20T00:43:34;99080.34;;;6.44;86.55
43147;BME280;28752;48.266;7.402;2022-11-20T00:46:06;99087.59;;;6.52;85.92
43147;BME280;28752;48.266;7.402;2022-11-20T00:48:32;99089.38;;;6.51;85.65
43147;BME280;28752;48.266;7.402;2022-11-20T00:50:58;99089.06;;;6.45;86.09
43147;BME280;28752;48.266;7.402;2022-11-20T00:53:24;99096.63;;;6.59;84.48
43147;BME280;28752;48.266;7.402;2022-11-20T00:55:57;99087.75;;;6.60;85.22
43147;BME280;28752;48.266;7.402;2022-11-20T00:58:24;99085.84;;;6.62;85.05
43147;BME280;28752;48.266;7.402;2022-11-20T01:00:50;99091.00;;;6.64;85.47
43147;BME280;28752;48.266;7.402;2022-11-20T01:03:17;99085.78;;;6.73;84.12
43147;BME280;28752;48.266;7.402;2022-11-20T01:05:42;99067.44;;;6.62;83.89
43147;BME280;28752;48.266;7.402;2022-11-20T01:08:07;99096.44;;;6.72;85.68
43147;BME280;28752;48.266;7.402;2022-11-20T01:10:33;99086.28;;;6.67;86.24
43147;BME280;28752;48.266;7.402;2022-11-20T01:12:58;99088.50;;;6.62;87.39
43147;BME280;28752;48.266;7.402;2022-11-20T01:15:42;99084.81;;;6.53;87.79
43147;BME280;28752;48.266;7.402;2022-11-20T01:18:07;99083.09;;;6.43;88.34
43147;BME280;28752;48.266;7.402;2022-11-20T01:20:36;99089.56;;;6.38;87.99
43147;BME280;28752;48.266;7.402;2022-11-20T01:23:03;99089.75;;;6.26;88.85
43147;BME280;28752;48.266;7.402;2022-11-20T01:25:29;99091.66;;;6.23;89.17
43147;BME280;28752;48.266;7.402;2022-11-20T01:27:54;99090.97;;;6.21;89.50
43147;BME280;28752;48.266;7.402;2022-11-20T01:30:19;99088.34;;;6.21;89.87
43147;BME280;28752;48.266;7.402;2022-11-20T01:32:45;99091.66;;;6.23;90.03
43147;BME280;28752;48.266;7.402;2022-11-20T01:35:10;99084.38;;;6.27;89.46
43147;BME280;28752;48.266;7.402;2022-11-20T01:37:35;99092.25;;;6.27;88.85
43147;BME280;28752;48.266;7.402;2022-11-20T01:40:01;99093.09;;;6.28;88.98
43147;BME280;28752;48.266;7.402;2022-11-20T01:42:26;99086.63;;;6.32;89.38
43147;BME280;28752;48.266;7.402;2022-11-20T01:48:14;99081.53;;;6.19;89.76
43147;BME280;28752;48.266;7.402;2022-11-20T01:50:40;99090.00;;;6.22;90.33
43147;BME280;28752;48.266;7.402;2022-11-20T01:53:10;99078.63;;;6.22;90.33
43147;BME280;28752;48.266;7.402;2022-11-20T01:55:42;99084.50;;;6.26;88.95
43147;BME280;28752;48.266;7.402;2022-11-20T01:58:10;99085.22;;;6.16;88.62
43147;BME280;28752;48.266;7.402;2022-11-20T02:00:36;99087.84;;;6.16;89.11
43147;BME280;28752;48.266;7.402;2022-11-20T02:03:13;99095.03;;;6.14;88.21
43147;BME280;28752;48.266;7.402;2022-11-20T02:08:21;99090.53;;;6.05;90.09
43147;BME280;28752;48.266;7.402;2022-11-20T02:10:48;99083.72;;;6.02;90.46
43147;BME280;28752;48.266;7.402;2022-11-20T02:13:13;99096.50;;;6.07;90.68
43147;BME280;28752;48.266;7.402;2022-11-20T02:15:58;99098.44;;;6.05;90.50
43147;BME280;28752;48.266;7.402;2022-11-20T02:18:24;99079.34;;;6.03;90.34
43147;BME280;28752;48.266;7.402;2022-11-20T02:21:02;99079.84;;;5.97;90.34
43147;BME280;28752;48.266;7.402;2022-11-20T02:24:03;99080.75;;;5.96;91.37
43147;BME280;28752;48.266;7.402;2022-11-20T02:26:31;99086.13;;;5.94;91.99
43147;BME280;28752;48.266;7.402;2022-11-20T02:29:00;99085.19;;;5.95;91.85
43147;BME280;28752;48.266;7.402;2022-11-20T02:31:26;99081.47;;;5.98;91.47
43147;BME280;28752;48.266;7.402;2022-11-20T02:33:58;99078.59;;;6.01;91.47
43147;BME280;28752;48.266;7.402;2022-11-20T02:36:26;99084.84;;;6.00;91.65
43147;BME280;28752;48.266;7.402;2022-11-20T02:38:52;99083.03;;;6.00;92.19
43147;BME280;28752;48.266;7.402;2022-11-20T02:41:18;99070.25;;;5.96;91.75
43147;BME280;28752;48.266;7.402;2022-11-20T02:43:44;99088.16;;;6.02;91.39
43147;BME280;28752;48.266;7.402;2022-11-20T02:46:09;99084.22;;;6.08;91.43
43147;BME280;28752;48.266;7.402;2022-11-20T02:48:35;99060.94;;;5.92;91.27
43147;BME280;28752;48.266;7.402;2022-11-20T02:51:00;99083.16;;;5.99;91.60
43147;BME280;28752;48.266;7.402;2022-11-20T02:53:25;99080.97;;;6.04;92.13
43147;BME280;28752;48.266;7.402;2022-11-20T02:55:51;99079.22;;;6.04;92.19
43147;BME280;28752;48.266;7.402;2022-11-20T02:58:16;99080.47;;;6.10;92.31
43147;BME280;28752;48.266;7.402;2022-11-20T03:00:41;99073.44;;;6.11;91.90
43147;BME280;28752;48.266;7.402;2022-11-20T03:03:07;99070.69;;;6.12;92.22
43147;BME280;28752;48.266;7.402;2022-11-20T03:05:32;99079.97;;;6.16;93.13
43147;BME280;28752;48.266;7.402;2022-11-20T03:07:57;99084.16;;;6.19;93.49
43147;BME280;28752;48.266;7.402;2022-11-20T03:10:23;99082.16;;;6.11;93.82
43147;BME280;28752;48.266;7.402;2022-11-20T03:12:53;99082.97;;;6.12;93.52
43147;BME280;28752;48.266;7.402;2022-11-20T03:15:19;99079.53;;;6.11;93.22
43147;BME280;28752;48.266;7.402;2022-11-20T03:17:44;99073.44;;;6.11;93.55
43147;BME280;28752;48.266;7.402;2022-11-20T03:20:10;99077.16;;;6.08;93.65
43147;BME280;28752;48.266;7.402;2022-11-20T03:22:36;99082.09;;;6.01;94.05
43147;BME280;28752;48.266;7.402;2022-11-20T03:25:02;99079.59;;;6.00;94.57
43147;BME280;28752;48.266;7.402;2022-11-20T03:27:32;99079.59;;;6.00;94.47
43147;BME280;28752;48.266;7.402;2022-11-20T03:29:57;99072.03;;;5.95;94.92
43147;BME280;28752;48.266;7.402;2022-11-20T03:32:23;99073.81;;;5.95;94.74
43147;BME280;28752;48.266;7.402;2022-11-20T03:34:48;99066.44;;;5.88;95.03
43147;BME280;28752;48.266;7.402;2022-11-20T03:37:13;99081.94;;;5.92;95.21
43147;BME280;28752;48.266;7.402;2022-11-20T03:39:39;99070.25;;;5.84;95.30
43147;BME280;28752;48.266;7.402;2022-11-20T03:42:04;99073.94;;;5.93;94.30
43147;BME280;28752;48.266;7.402;2022-11-20T03:44:49;99080.44;;;6.21;94.46
43147;BME280;28752;48.266;7.402;2022-11-20T03:47:14;99086.16;;;6.27;93.82
43147;BME280;28752;48.266;7.402;2022-11-20T03:49:40;99067.63;;;6.28;92.46
43147;BME280;28752;48.266;7.402;2022-11-20T03:52:05;99077.19;;;6.29;93.66
43147;BME280;28752;48.266;7.402;2022-11-20T03:54:31;99073.84;;;6.27;92.54
43147;BME280;28752;48.266;7.402;2022-11-20T03:56:56;99055.50;;;6.16;92.65
43147;BME280;28752;48.266;7.402;2022-11-20T03:59:21;99080.50;;;6.31;92.93
43147;BME280;28752;48.266;7.402;2022-11-20T04:01:47;99073.06;;;6.15;93.89
43147;BME280;28752;48.266;7.402;2022-11-20T04:04:12;99076.31;;;6.08;94.95
43147;BME280;28752;48.266;7.402;2022-11-20T04:06:37;99080.72;;;6.07;94.88
43147;BME280;28752;48.266;7.402;2022-11-20T04:09:03;99070.16;;;5.97;95.19
43147;BME280;28752;48.266;7.402;2022-11-20T04:11:31;99080.06;;;5.94;95.66
43147;BME280;28752;48.266;7.402;2022-11-20T04:13:59;99079.94;;;5.95;96.39
43147;BME280;28752;48.266;7.402;2022-11-20T04:16:25;99081.56;;;5.96;96.67
43147;BME280;28752;48.266;7.402;2022-11-20T04:18:52;99076.44;;;5.95;95.92
43147;BME280;28752;48.266;7.402;2022-11-20T04:21:17;99072.41;;;5.91;96.80
43147;BME280;28752;48.266;7.402;2022-11-20T04:23:43;99071.38;;;5.82;96.85
43147;BME280;28752;48.266;7.402;2022-11-20T04:26:11;99064.09;;;5.74;97.73
43147;BME280;28752;48.266;7.402;2022-11-20T04:28:37;99062.94;;;5.67;97.02
43147;BME280;28752;48.266;7.402;2022-11-20T04:31:08;99069.03;;;5.45;98.16
43147;BME280;28752;48.266;7.402;2022-11-20T04:33:34;99071.22;;;5.40;99.12
43147;BME280;28752;48.266;7.402;2022-11-20T04:36:00;99067.78;;;5.39;99.36
43147;BME280;28752;48.266;7.402;2022-11-20T04:38:27;99054.28;;;5.21;100.00
43147;BME280;28752;48.266;7.402;2022-11-20T04:40:58;99041.91;;;5.12;100.00
43147;BME280;28752;48.266;7.402;2022-11-20T04:43:24;99070.63;;;5.25;100.00
43147;BME280;28752;48.266;7.402;2022-11-20T04:45:54;99070.75;;;5.23;100.00
43147;BME280;28752;48.266;7.402;2022-11-20T04:48:19;99068.94;;;5.24;100.00
43147;BME280;28752;48.266;7.402;2022-11-20T04:50:45;99066.31;;;5.24;100.00
43147;BME280;28752;48.266;7.402;2022-11-20T04:53:10;99059.88;;;5.28;100.00
43147;BME280;28752;48.266;7.402;2022-11-20T04:55:36;99065.03;;;5.41;100.00
43147;BME280;28752;48.266;7.402;2022-11-20T04:58:01;99073.44;;;5.56;100.00
43147;BME280;28752;48.266;7.402;2022-11-20T05:00:26;99081.31;;;5.56;100.00
43147;BME280;28752;48.266;7.402;2022-11-20T05:02:52;99081.94;;;5.59;100.00
43147;BME280;28752;48.266;7.402;2022-11-20T05:05:17;99075.13;;;5.68;99.74
43147;BME280;28752;48.266;7.402;2022-11-20T05:07:43;99077.38;;;5.73;98.97
43147;BME280;28752;48.266;7.402;2022-11-20T05:10:08;99083.19;;;5.76;99.28
43147;BME280;28752;48.266;7.402;2022-11-20T05:12:34;99073.75;;;5.74;99.69
43147;BME280;28752;48.266;7.402;2022-11-20T05:14:59;99078.16;;;5.84;99.66
43147;BME280;28752;48.266;7.402;2022-11-20T05:17:24;99079.81;;;5.85;100.00
43147;BME280;28752;48.266;7.402;2022-11-20T05:19:50;99074.69;;;5.84;100.00
43147;BME280;28752;48.266;7.402;2022-11-20T05:22:15;99073.25;;;5.91;100.00
43147;BME280;28752;48.266;7.402;2022-11-20T05:24:41;99079.06;;;5.95;100.00
43147;BME280;28752;48.266;7.402;2022-11-20T05:27:06;99066.78;;;5.95;100.00
43147;BME280;28752;48.266;7.402;2022-11-20T05:29:31;99071.75;;;6.10;100.00
43147;BME280;28752;48.266;7.402;2022-11-20T05:31:57;99071.63;;;6.11;100.00
43147;BME280;28752;48.266;7.402;2022-11-20T05:34:22;99067.69;;;6.17;99.58
43147;BME280;28752;48.266;7.402;2022-11-20T05:36:47;99076.75;;;6.24;99.17
43147;BME280;28752;48.266;7.402;2022-11-20T05:39:13;99042.56;;;6.24;98.50
43147;BME280;28752;48.266;7.402;2022-11-20T05:41:38;99061.59;;;6.37;97.70
43147;BME280;28752;48.266;7.402;2022-11-20T05:44:03;99054.09;;;6.33;98.75
43147;BME280;28752;48.266;7.402;2022-11-20T05:46:29;99040.19;;;6.21;100.00
43147;BME280;28752;48.266;7.402;2022-11-20T05:48:55;99054.22;;;6.31;100.00
43147;BME280;28752;48.266;7.402;2022-11-20T05:51:20;99061.84;;;6.34;100.00
43147;BME280;28752;48.266;7.402;2022-11-20T05:53:46;99061.47;;;6.39;100.00
43147;BME280;28752;48.266;7.402;2022-11-20T05:56:14;99065.75;;;6.40;99.48
43147;BME280;28752;48.266;7.402;2022-11-20T05:58:41;99056.78;;;6.43;100.00
43147;BME280;28752;48.266;7.402;2022-11-20T06:03:42;99061.47;;;6.39;98.18
43147;BME280;28752;48.266;7.402;2022-11-20T06:06:08;99059.47;;;6.31;96.59
43147;BME280;28752;48.266;7.402;2022-11-20T06:08:34;99061.94;;;6.44;97.22
43147;BME280;28752;48.266;7.402;2022-11-20T06:11:04;99054.84;;;6.45;97.23
43147;BME280;28752;48.266;7.402;2022-11-20T06:13:30;99061.28;;;6.52;97.72
43147;BME280;28752;48.266;7.402;2022-11-20T06:15:55;99064.94;;;6.61;98.06
43147;BME280;28752;48.266;7.402;2022-11-20T06:18:21;99056.06;;;6.62;96.47
43147;BME280;28752;48.266;7.402;2022-11-20T06:20:46;99062.19;;;6.62;96.55
43147;BME280;28752;48.266;7.402;2022-11-20T06:23:12;99060.06;;;6.56;97.56
43147;BME280;28752;48.266;7.402;2022-11-20T06:25:39;99067.19;;;6.65;97.34
43147;BME280;28752;48.266;7.402;2022-11-20T06:28:04;99069.41;;;6.70;96.82
43147;BME280;28752;48.266;7.402;2022-11-20T06:30:30;99071.31;;;6.68;96.45
43147;BME280;28752;48.266;7.402;2022-11-20T06:32:55;99072.91;;;6.80;94.97
43147;BME280;28752;48.266;7.402;2022-11-20T06:35:20;99071.97;;;6.81;94.94
43147;BME280;28752;48.266;7.402;2022-11-20T06:37:46;99069.94;;;6.85;94.23
43147;BME280;28752;48.266;7.402;2022-11-20T06:40:11;99079.16;;;6.79;95.46
43147;BME280;28752;48.266;7.402;2022-11-20T06:42:37;99078.25;;;6.90;93.93
43147;BME280;28752;48.266;7.402;2022-11-20T06:45:02;99078.63;;;6.85;93.96
43147;BME280;28752;48.266;7.402;2022-11-20T06:47:28;99084.16;;;6.82;95.12
43147;BME280;28752;48.266;7.402;2022-11-20T06:49:53;99086.06;;;6.80;96.11
43147;BME280;28752;48.266;7.402;2022-11-20T06:52:18;99085.63;;;6.75;96.75
43147;BME280;28752;48.266;7.402;2022-11-20T06:54:44;99088.69;;;6.80;97.19
43147;BME280;28752;48.266;7.402;2022-11-20T06:57:09;99061.28;;;6.73;96.98
43147;BME280;28752;48.266;7.402;2022-11-20T06:59:34;99078.97;;;6.71;97.27
43147;BME280;28752;48.266;7.402;2022-11-20T07:02:00;99094.44;;;6.85;96.70
43147;BME280;28752;48.266;7.402;2022-11-20T07:04:25;99091.28;;;6.91;96.54
43147;BME280;28752;48.266;7.402;2022-11-20T07:06:51;99094.16;;;6.88;97.97
43147;BME280;28752;48.266;7.402;2022-11-20T07:09:16;99087.75;;;6.81;97.96
43147;BME280;28752;48.266;7.402;2022-11-20T07:11:41;99101.41;;;6.96;97.85
43147;BME280;28752;48.266;7.402;2022-11-20T07:14:07;99107.63;;;6.95;98.77
43147;BME280;28752;48.266;7.402;2022-11-20T07:16:32;99099.03;;;6.93;98.39
43147;BME280;28752;48.266;7.402;2022-11-20T07:18:57;99109.13;;;6.88;98.55
43147;BME280;28752;48.266;7.402;2022-11-20T07:21:23;99112.91;;;6.95;98.87
43147;BME280;28752;48.266;7.402;2022-11-20T07:23:48;99116.91;;;6.89;99.83
43147;BME280;28752;48.266;7.402;2022-11-20T07:26:13;99114.88;;;6.82;99.37
43147;BME280;28752;48.266;7.402;2022-11-20T07:28:39;99128.50;;;6.87;99.81
43147;BME280;28752;48.266;7.402;2022-11-20T07:31:05;99123.00;;;6.90;100.00
43147;BME280;28752;48.266;7.402;2022-11-20T07:33:32;99124.66;;;6.91;99.59
43147;BME280;28752;48.266;7.402;2022-11-20T07:35:59;99128.50;;;6.87;100.00
43147;BME280;28752;48.266;7.402;2022-11-20T07:38:25;99094.88;;;6.69;100.00
43147;BME280;28752;48.266;7.402;2022-11-20T07:40:54;99120.75;;;6.85;100.00
43147;BME280;28752;48.266;7.402;2022-11-20T07:43:20;99134.72;;;6.86;100.00
43147;BME280;28752;48.266;7.402;2022-11-20T07:45:45;99123.50;;;6.84;100.00
43147;BME280;28752;48.266;7.402;2022-11-20T07:48:11;99131.28;;;6.85;100.00
43147;BME280;28752;48.266;7.402;2022-11-20T07:50:36;99114.19;;;6.80;100.00
43147;BME280;28752;48.266;7.402;2022-11-20T07:53:05;99121.69;;;6.84;100.00
43147;BME280;28752;48.266;7.402;2022-11-20T07:55:31;99124.22;;;6.86;100.00
43147;BME280;28752;48.266;7.402;2022-11-20T07:57:57;99139.94;;;6.97;100.00
43147;BME280;28752;48.266;7.402;2022-11-20T08:00:24;99128.94;;;6.92;100.00
43147;BME280;28752;48.266;7.402;2022-11-20T08:02:49;99142.06;;;7.03;100.00
43147;BME280;28752;48.266;7.402;2022-11-20T08:05:15;99127.34;;;7.01;100.00
43147;BME280;28752;48.266;7.402;2022-11-20T08:07:42;99136.25;;;7.09;99.84
43147;BME280;28752;48.266;7.402;2022-11-20T08:10:09;99131.81;;;7.10;98.23
43147;BME280;28752;48.266;7.402;2022-11-20T08:12:35;99136.00;;;7.13;97.08
43147;BME280;28752;48.266;7.402;2022-11-20T08:15:33;99121.00;;;7.03;94.15
43147;BME280;28752;48.266;7.402;2022-11-20T08:18:00;99130.47;;;7.16;95.18
43147;BME280;28752;48.266;7.402;2022-11-20T08:20:26;99140.19;;;7.15;96.92
43147;BME280;28752;48.266;7.402;2022-11-20T08:22:51;99146.25;;;7.16;93.32
43147;BME280;28752;48.266;7.402;2022-11-20T08:25:17;99164.81;;;7.35;93.11
43147;BME280;28752;48.266;7.402;2022-11-20T08:27:42;99168.81;;;7.39;94.26
43147;BME280;28752;48.266;7.402;2022-11-20T08:30:08;99168.56;;;7.42;92.51
43147;BME280;28752;48.266;7.402;2022-11-20T08:32:34;99180.97;;;7.52;90.16
43147;BME280;28752;48.266;7.402;2022-11-20T08:35:02;99175.81;;;7.50;91.90
43147;BME280;28752;48.266;7.402;2022-11-20T08:37:27;99179.75;;;7.65;91.22
43147;BME280;28752;48.266;7.402;2022-11-20T08:39:53;99180.03;;;7.62;90.40
43147;BME280;28752;48.266;7.402;2022-11-20T08:42:19;99177.66;;;7.59;91.55
43147;BME280;28752;48.266;7.402;2022-11-20T08:44:44;99181.25;;;7.58;92.90
43147;BME280;28752;48.266;7.402;2022-11-20T08:47:09;99189.41;;;7.55;93.45
43147;BME280;28752;48.266;7.402;2022-11-20T08:49:35;99186.22;;;7.52;92.99
43147;BME280;28752;48.266;7.402;2022-11-20T08:52:00;99172.72;;;7.45;92.83
43147;BME280;28752;48.266;7.402;2022-11-20T08:54:25;99179.91;;;7.64;91.42
43147;BME280;28752;48.266;7.402;2022-11-20T08:56:51;99184.03;;;7.67;90.56
43147;BME280;28752;48.266;7.402;2022-11-20T08:59:16;99170.41;;;7.52;90.87
43147;BME280;28752;48.266;7.402;2022-11-20T09:01:42;99183.09;;;7.68;89.24
43147;BME280;28752;48.266;7.402;2022-11-20T09:04:07;99183.41;;;7.84;89.24
43147;BME280;28752;48.266;7.402;2022-11-20T09:06:33;99160.78;;;7.81;88.51
43147;BME280;28752;48.266;7.402;2022-11-20T09:08:58;99188.47;;;8.16;89.86
43147;BME280;28752;48.266;7.402;2022-11-20T09:11:23;99186.00;;;8.34;89.03
43147;BME280;28752;48.266;7.402;2022-11-20T09:13:49;99183.09;;;8.38;86.68
43147;BME280;28752;48.266;7.402;2022-11-20T09:16:14;99186.88;;;8.54;85.23
43147;BME280;28752;48.266;7.402;2022-11-20T09:18:40;99177.16;;;8.45;84.29
43147;BME280;28752;48.266;7.402;2022-11-20T09:21:09;99186.06;;;8.54;84.48
43147;BME280;28752;48.266;7.402;2022-11-20T09:23:38;99178.97;;;8.54;82.24
43147;BME280;28752;48.266;7.402;2022-11-20T09:26:12;99182.56;;;8.63;81.61
43147;BME280;28752;48.266;7.402;2022-11-20T09:28:38;99185.50;;;8.70;82.32
43147;BME280;28752;48.266;7.402;2022-11-20T09:31:08;99192.84;;;8.86;81.88
43147;BME280;28752;48.266;7.402;2022-11-20T09:33:34;99192.84;;;8.86;80.17
43147;BME280;28752;48.266;7.402;2022-11-20T09:36:00;99203.66;;;9.02;80.27
43147;BME280;28752;48.266;7.402;2022-11-20T09:38:25;99193.78;;;9.04;78.61
43147;BME280;28752;48.266;7.402;2022-11-20T09:41:04;99168.69;;;8.81;77.78
43147;BME280;28752;48.266;7.402;2022-11-20T09:44:13;99197.56;;;8.92;76.29
43147;BME280;28752;48.266;7.402;2022-11-20T09:46:45;99191.16;;;8.85;76.10
43147;BME280;28752;48.266;7.402;2022-11-20T09:51:59;99196.44;;;8.85;77.24
43147;BME280;28752;48.266;7.402;2022-11-20T09:54:31;99204.06;;;9.07;77.53
43147;BME280;28752;48.266;7.402;2022-11-20T09:57:03;99205.84;;;9.17;74.40
43147;BME280;28752;48.266;7.402;2022-11-20T09:59:50;99196.28;;;9.16;73.37
43147;BME280;28752;48.266;7.402;2022-11-20T10:04:51;99207.50;;;9.37;74.39
43147;BME280;28752;48.266;7.402;2022-11-20T10:07:37;99205.75;;;9.56;74.33
43147;BME280;28752;48.266;7.402;2022-11-20T10:10:04;99207.50;;;9.75;72.97
43147;BME280;28752;48.266;7.402;2022-11-20T10:26:53;99184.56;;;9.93;70.49
43147;BME280;28752;48.266;7.402;2022-11-20T10:29:29;99182.97;;;9.83;70.20
43147;BME280;28752;48.266;7.402;2022-11-20T10:32:02;99180.56;;;9.62;68.80
43147;BME280;28752;48.266;7.402;2022-11-20T10:35:00;99184.59;;;9.56;71.38
43147;BME280;28752;48.266;7.402;2022-11-20T10:37:28;99183.47;;;9.31;70.73
43147;BME280;28752;48.266;7.402;2022-11-20T10:45:13;99164.88;;;9.13;71.06
43147;BME280;28752;48.266;7.402;2022-11-20T10:47:40;99155.13;;;9.13;70.10
43147;BME280;28752;48.266;7.402;2022-11-20T10:50:11;99149.03;;;9.03;69.76
43147;BME280;28752;48.266;7.402;2022-11-20T10:53:04;99136.69;;;8.94;69.89
43147;BME280;28752;48.266;7.402;2022-11-20T10:55:57;99147.50;;;9.10;69.88
43147;BME280;28752;48.266;7.402;2022-11-20T11:01:16;99129.38;;;8.68;69.68
43147;BME280;28752;48.266;7.402;2022-11-20T11:03:43;99144.06;;;8.80;68.45
43147;BME280;28752;48.266;7.402;2022-11-20T11:06:22;99109.66;;;8.62;67.95
43147;BME280;28752;48.266;7.402;2022-11-20T11:08:53;99121.19;;;8.61;69.15
43147;BME280;28752;48.266;7.402;2022-11-20T11:13:47;99114.91;;;8.82;69.17
43147;BME280;28752;48.266;7.402;2022-11-20T11:16:20;99120.41;;;8.98;67.52
43147;BME280;28752;48.266;7.402;2022-11-20T11:18:46;99118.72;;;9.07;66.82
43147;BME280;28752;48.266;7.402;2022-11-20T11:21:11;99112.53;;;9.26;66.46
43147;BME280;28752;48.266;7.402;2022-11-20T11:23:41;99108.34;;;9.33;66.54
43147;BME280;28752;48.266;7.402;2022-11-20T11:26:19;99113.84;;;9.50;66.24
43147;BME280;28752;48.266;7.402;2022-11-20T11:28:58;99100.69;;;9.58;66.18
43147;BME280;28752;48.266;7.402;2022-11-20T11:31:27;99092.34;;;9.81;64.49
43147;BME280;28752;48.266;7.402;2022-11-20T11:34:06;99076.44;;;9.90;63.44
43147;BME280;28752;48.266;7.402;2022-11-20T11:36:33;99077.66;;;9.96;63.70
43147;BME280;28752;48.266;7.402;2022-11-20T11:39:00;99069.28;;;9.83;63.44
43147;BME280;28752;48.266;7.402;2022-11-20T11:41:30;99092.94;;;10.02;62.63
43147;BME280;28752;48.266;7.402;2022-11-20T11:44:00;99072.22;;;9.98;61.32
43147;BME280;28752;48.266;7.402;2022-11-20T11:46:55;99059.56;;;9.91;61.67
43147;BME280;28752;48.266;7.402;2022-11-20T11:49:21;99065.56;;;10.11;62.77
43147;BME280;28752;48.266;7.402;2022-11-20T11:54:37;99058.16;;;10.51;58.41
43147;BME280;28752;48.266;7.402;2022-11-20T11:57:36;99064.53;;;10.66;57.93
43147;BME280;28752;48.266;7.402;2022-11-20T12:00:14;99058.50;;;10.82;58.67
43147;BME280;28752;48.266;7.402;2022-11-20T12:08:10;99052.47;;;10.98;57.41
43147;BME280;28752;48.266;7.402;2022-11-20T12:11:03;99044.72;;;11.05;56.22
43147;BME280;28752;48.266;7.402;2022-11-20T12:16:19;99053.72;;;10.86;59.41
43147;BME280;28752;48.266;7.402;2022-11-20T12:18:46;99057.25;;;10.95;59.27
43147;BME280;28752;48.266;7.402;2022-11-20T12:26:35;99068.25;;;11.08;61.13
43147;BME280;28752;48.266;7.402;2022-11-20T12:37:24;99056.88;;;10.90;56.51
43147;BME280;28752;48.266;7.402;2022-11-20T12:40:23;99062.50;;;10.87;55.63
43147;BME280;28752;48.266;7.402;2022-11-20T12:43:11;99059.38;;;10.91;57.37
43147;BME280;28752;48.266;7.402;2022-11-20T13:02:36;99033.25;;;10.70;56.86
43147;BME280;28752;48.266;7.402;2022-11-20T13:07:44;99030.13;;;10.66;58.57
43147;BME280;28752;48.266;7.402;2022-11-20T13:10:18;99029.84;;;10.52;57.53
43147;BME280;28752;48.266;7.402;2022-11-20T13:12:50;99020.22;;;10.51;57.19
43147;BME280;28752;48.266;7.402;2022-11-20T13:15:31;98990.47;;;10.30;57.25
43147;BME280;28752;48.266;7.402;2022-11-20T13:18:01;99012.44;;;10.49;57.09
43147;BME280;28752;48.266;7.402;2022-11-20T13:20:36;98997.88;;;10.45;58.28
43147;BME280;28752;48.266;7.402;2022-11-20T13:23:06;99010.81;;;10.48;55.80
43147;BME280;28752;48.266;7.402;2022-11-20T13:25:38;99018.94;;;10.55;59.56
43147;BME280;28752;48.266;7.402;2022-11-20T13:28:26;99013.41;;;10.66;59.24
43147;BME280;28752;48.266;7.402;2022-11-20T13:30:53;99006.75;;;10.62;58.10
43147;BME280;28752;48.266;7.402;2022-11-20T13:33:36;99011.94;;;10.72;59.47
43147;BME280;28752;48.266;7.402;2022-11-20T13:36:07;99007.16;;;10.75;58.84
43147;BME280;28752;48.266;7.402;2022-11-20T13:38:50;98997.44;;;10.58;58.82
43147;BME280;28752;48.266;7.402;2022-11-20T13:41:26;98994.78;;;10.49;58.70
43147;BME280;28752;48.266;7.402;2022-11-20T13:44:27;98957.63;;;10.33;58.04
43147;BME280;28752;48.266;7.402;2022-11-20T13:46:49;98975.28;;;10.32;57.24
43147;BME280;28752;48.266;7.402;2022-11-20T13:55:10;98959.38;;;10.06;56.63
43147;BME280;28752;48.266;7.402;2022-11-20T14:00:24;98957.97;;;9.94;57.62
43147;BME280;28752;48.266;7.402;2022-11-20T14:05:35;98948.91;;;9.96;56.33
43147;BME280;28752;48.266;7.402;2022-11-20T14:08:03;98943.00;;;9.85;58.43
43147;BME280;28752;48.266;7.402;2022-11-20T14:10:29;98923.84;;;9.83;59.34
43147;BME280;28752;48.266;7.402;2022-11-20T14:12:55;98928.81;;;9.86;59.92
43147;BME280;28752;48.266;7.402;2022-11-20T14:15:34;98920.88;;;9.86;59.67
43147;BME280;28752;48.266;7.402;2022-11-20T14:18:11;98917.31;;;9.95;59.69
43147;BME280;28752;48.266;7.402;2022-11-20T14:20:38;98920.19;;;9.84;59.45
43147;BME280;28752;48.266;7.402;2022-11-20T14:23:03;98915.16;;;9.72;58.66
43147;BME280;28752;48.266;7.402;2022-11-20T14:25:30;98911.28;;;9.85;60.54
43147;BME280;28752;48.266;7.402;2022-11-20T14:27:57;98902.28;;;9.77;60.77
43147;BME280;28752;48.266;7.402;2022-11-20T14:30:28;98888.88;;;9.71;61.84
43147;BME280;28752;48.266;7.402;2022-11-20T14:32:56;98885.88;;;9.66;61.74
43147;BME280;28752;48.266;7.402;2022-11-20T14:35:34;98887.50;;;9.67;61.88
43147;BME280;28752;48.266;7.402;2022-11-20T14:38:01;98889.09;;;9.59;62.75
43147;BME280;28752;48.266;7.402;2022-11-20T14:40:32;98891.16;;;9.48;62.76
43147;BME280;28752;48.266;7.402;2022-11-20T14:43:00;98892.09;;;9.38;62.88
43147;BME280;28752;48.266;7.402;2022-11-20T14:45:26;98898.84;;;9.41;62.59
43147;BME280;28752;48.266;7.402;2022-11-20T14:47:55;98901.94;;;9.36;63.11
43147;BME280;28752;48.266;7.402;2022-11-20T14:50:27;98887.84;;;9.28;63.86